Time;durP1;ratioP1;P1;durP2;ratioP2;P2;SDS_P1;SDS_P2;PMS_P1;PMS_P2;Temp;Humidity;BMP_temperature;BMP_pressure;BME280_temperature;BME280_humidity;BME280_pressure;Samples;Min_cycle;Max_cycle;Signal;HPM_P1;HPM_P2
2022/05/29 00:00:19;;;;;;;;;;;;;;;;;;5036295;28;19913;-82
2022/05/29 00:02:45;;;;;;;;;;;;;;;;;;5039649;28;19996;-82
2022/05/29 00:05:11;;;;;;;;;;;;;;;;;;5034706;28;19960;-82
2022/05/29 00:07:37;;;;;;;;;;;;;;;;;;5038478;28;20765;-83
2022/05/29 00:10:02;;;;;;;;;;;;;;;;;;5035035;28;19915;-83
2022/05/29 00:12:28;;;;;;;;;;;;;;;;;;5034817;28;19936;-82
2022/05/29 00:14:55;;;;;;;;;;;;;;;;;;5036865;28;19919;-82
2022/05/29 00:17:21;;;;;;;;;;;;;;;;;;5035107;28;20053;-84
2022/05/29 00:19:47;;;;;;;;;;;;;;;;;;5043346;28;20479;-82
2022/05/29 00:22:12;;;;;;;;;;;;;;;;;;5033370;28;20011;-83
2022/05/29 00:24:38;;;;;;;;;;;;;;;;;;5032581;28;20015;-82
2022/05/29 00:27:04;;;;;;;;;;;;;;;;;;5038746;28;19912;-82
2022/05/29 00:29:30;;;;;;;;;;;;;;;;;;5036643;28;20325;-82
2022/05/29 00:31:56;;;;;;;;;;;;;;;;;;5037072;28;19975;-82
2022/05/29 00:34:22;;;;;;;;;;;;;;;;;;5034709;28;20439;-86
2022/05/29 00:36:49;;;;;;;;;;;;;;;;;;5034923;28;19936;-84
2022/05/29 00:39:15;;;;;;;;;;;;;;;;;;5037239;28;19936;-85
2022/05/29 00:41:41;;;;;;;;;;;;;;;;;;5036271;28;19994;-82
2022/05/29 00:44:07;;;;;;;;;;;;;;;;;;5026541;28;20074;-81
2022/05/29 00:46:33;;;;;;;;;;;;;;;;;;5033968;28;19913;-82
2022/05/29 00:48:59;;;;;;;;;;;;;;;;;;5031448;28;19913;-82
2022/05/29 00:51:25;;;;;;;;;;;;;;;;;;5031573;28;19974;-83
2022/05/29 00:53:51;;;;;;;;;;;;;;;;;;5033933;28;19915;-83
2022/05/29 00:56:17;;;;;;;;;;;;;;;;;;5030778;28;19917;-83
2022/05/29 00:58:43;;;;;;;;;;;;;;;;;;5033045;28;19919;-83
2022/05/29 01:01:08;;;;;;;;;;;;;;;;;;5030190;28;19913;-83
2022/05/29 01:03:34;;;;;;;;;;;;;;;;;;5029325;28;19916;-83
2022/05/29 01:06:00;;;;;;;;;;;;;;;;;;5031938;28;20389;-82
2022/05/29 01:08:26;;;;;;;;;;;;;;;;;;5037861;28;19938;-85
2022/05/29 01:10:52;;;;;;;;;;;;;;;;;;5037424;28;19923;-84
2022/05/29 01:13:18;;;;;;;;;;;;;;;;;;5036399;28;20039;-84
2022/05/29 01:15:44;;;;;;;;;;;;;;;;;;5035614;28;20590;-84
2022/05/29 01:18:10;;;;;;;;;;;;;;;;;;5033522;28;20378;-83
2022/05/29 01:20:36;;;;;;;;;;;;;;;;;;5026494;28;20695;-84
2022/05/29 01:23:02;;;;;;;;;;;;;;;;;;5034137;28;19912;-84
2022/05/29 01:25:28;;;;;;;;;;;;;;;;;;5034383;28;19936;-87
2022/05/29 01:27:53;;;;;;;;;;;;;;;;;;5031837;28;19913;-87
2022/05/29 01:30:19;;;;;;;;;;;;;;;;;;5035367;28;19925;-87
2022/05/29 01:32:45;;;;;;;;;;;;;;;;;;5033692;28;19959;-87
2022/05/29 01:35:11;;;;;;;;;;;;;;;;;;5037828;28;19943;-86
2022/05/29 01:37:37;;;;;;;;;;;;;;;;;;5032527;28;19924;-85
2022/05/29 01:40:03;;;;;;;;;;;;;;;;;;5039236;28;19920;-83
2022/05/29 01:42:29;;;;;;;;;;;;;;;;;;5033543;28;20397;-85
2022/05/29 01:44:55;;;;;;;;;;;;;;;;;;5039050;28;19964;-82
2022/05/29 01:47:21;;;;;;;;;;;;;;;;;;5036880;28;19987;-82
2022/05/29 01:49:47;;;;;;;;;;;;;;;;;;5036727;28;19955;-82
2022/05/29 01:52:13;;;;;;;;;;;;;;;;;;5039142;28;20114;-82
2022/05/29 01:54:39;;;;;;;;;;;;;;;;;;5037352;28;19913;-83
2022/05/29 01:57:05;;;;;;;;;;;;;;;;;;5041098;28;20349;-82
2022/05/29 01:59:31;;;;;;;;;;;;;;;;;;5039795;28;19913;-82
2022/05/29 02:01:57;;;;;;;;;;;;;;;;;;5040098;28;19912;-81
2022/05/29 02:04:23;;;;;;;;;;;;;;;;;;5039556;28;20743;-81
2022/05/29 02:09:34;;;;;;;;;;;;;;;;;;5039223;28;20020;-82
2022/05/29 02:11:59;;;;;;;;;;;;;;;;;;5040818;28;20003;-82
2022/05/29 02:14:25;;;;;;;;;;;;;;;;;;5038048;28;20389;-83
2022/05/29 02:16:54;;;;;;;;;;;;;;;;;;5038882;28;19917;-83
2022/05/29 02:19:20;;;;;;;;;;;;;;;;;;5041046;28;19920;-82
2022/05/29 02:21:46;;;;;;;;;;;;;;;;;;5037788;28;20790;-82
2022/05/29 02:24:13;;;;;;;;;;;;;;;;;;5038511;28;19921;-82
2022/05/29 02:26:39;;;;;;;;;;;;;;;;;;5044108;28;19971;-84
2022/05/29 02:29:05;;;;;;;;;;;;;;;;;;5038721;28;20430;-83
2022/05/29 02:31:31;;;;;;;;;;;;;;;;;;5037908;28;19909;-84
2022/05/29 02:33:57;;;;;;;;;;;;;;;;;;5036933;28;20003;-84
2022/05/29 02:36:23;;;;;;;;;;;;;;;;;;5037592;28;20733;-86
2022/05/29 02:38:49;;;;;;;;;;;;;;;;;;5035742;28;19913;-83
2022/05/29 02:41:15;;;;;;;;;;;;;;;;;;5036943;28;20378;-85
2022/05/29 02:43:41;;;;;;;;;;;;;;;;;;5037834;28;20386;-84
2022/05/29 02:46:07;;;;;;;;;;;;;;;;;;5038460;28;19928;-84
2022/05/29 02:48:32;;;;;;;;;;;;;;;;;;5034843;28;19996;-85
2022/05/29 02:50:58;;;;;;;;;;;;;;;;;;5039894;28;20377;-85
2022/05/29 02:53:24;;;;;;;;;;;;;;;;;;5041754;28;19916;-83
2022/05/29 02:55:50;;;;;;;;;;;;;;;;;;5039381;28;19909;-83
2022/05/29 02:58:18;;;;;;;;;;;;;;;;;;5040900;28;19940;-84
2022/05/29 03:00:44;;;;;;;;;;;;;;;;;;5036273;28;19966;-84
2022/05/29 03:03:10;;;;;;;;;;;;;;;;;;5038756;28;19916;-83
2022/05/29 03:05:36;;;;;;;;;;;;;;;;;;5039611;28;20183;-85
2022/05/29 03:08:02;;;;;;;;;;;;;;;;;;5036728;28;20643;-85
2022/05/29 03:10:28;;;;;;;;;;;;;;;;;;5039565;28;20015;-86
2022/05/29 03:12:54;;;;;;;;;;;;;;;;;;5039448;28;20011;-83
2022/05/29 03:15:20;;;;;;;;;;;;;;;;;;5038550;28;19917;-82
2022/05/29 03:17:46;;;;;;;;;;;;;;;;;;5041606;28;20368;-82
2022/05/29 03:20:13;;;;;;;;;;;;;;;;;;5036589;28;20000;-87
2022/05/29 03:22:39;;;;;;;;;;;;;;;;;;5039547;28;19962;-85
2022/05/29 03:25:05;;;;;;;;;;;;;;;;;;5040075;28;19924;-79
2022/05/29 03:27:31;;;;;;;;;;;;;;;;;;5037909;28;20008;-79
2022/05/29 03:29:57;;;;;;;;;;;;;;;;;;5037808;28;20465;-78
2022/05/29 03:32:23;;;;;;;;;;;;;;;;;;5041327;28;19946;-79
2022/05/29 03:34:48;;;;;;;;;;;;;;;;;;5037332;28;19908;-79
2022/05/29 03:37:14;;;;;;;;;;;;;;;;;;5037343;28;20639;-79
2022/05/29 03:39:40;;;;;;;;;;;;;;;;;;5038239;28;19912;-78
2022/05/29 03:42:06;;;;;;;;;;;;;;;;;;5038866;28;20891;-80
2022/05/29 03:44:32;;;;;;;;;;;;;;;;;;5038704;28;19927;-81
2022/05/29 03:46:58;;;;;;;;;;;;;;;;;;5027557;28;19921;-81
2022/05/29 03:49:24;;;;;;;;;;;;;;;;;;5037438;28;20282;-82
2022/05/29 03:51:50;;;;;;;;;;;;;;;;;;5037501;28;19913;-81
2022/05/29 03:54:16;;;;;;;;;;;;;;;;;;5035371;28;19912;-81
2022/05/29 03:56:42;;;;;;;;;;;;;;;;;;5031178;28;19920;-81
2022/05/29 03:59:07;;;;;;;;;;;;;;;;;;5034871;28;19920;-80
2022/05/29 04:01:33;;;;;;;;;;;;;;;;;;5039941;28;19912;-80
2022/05/29 04:03:59;;;;;;;;;;;;;;;;;;5037065;28;19917;-80
2022/05/29 04:06:25;;;;;;;;;;;;;;;;;;5035141;28;19923;-81
2022/05/29 04:14:21;;;;;;;;;;;;;;;;;;5035436;28;20004;-80
2022/05/29 04:16:47;;;;;;;;;;;;;;;;;;5037156;28;19917;-82
2022/05/29 04:19:13;;;;;;;;;;;;;;;;;;5035117;28;19916;-82
2022/05/29 04:21:39;;;;;;;;;;;;;;;;;;5035465;28;19940;-81
2022/05/29 04:24:05;;;;;;;;;;;;;;;;;;5040137;28;19992;-81
2022/05/29 04:26:32;;;;;;;;;;;;;;;;;;5040019;28;20026;-82
2022/05/29 04:28:58;;;;;;;;;;;;;;;;;;5038987;28;19920;-84
2022/05/29 04:31:24;;;;;;;;;;;;;;;;;;5035252;28;19919;-86
2022/05/29 04:33:50;;;;;;;;;;;;;;;;;;5035005;28;19931;-88
2022/05/29 04:36:16;;;;;;;;;;;;;;;;;;5040261;28;19915;-88
2022/05/29 04:38:43;;;;;;;;;;;;;;;;;;5040523;28;19915;-86
2022/05/29 04:41:08;;;;;;;;;;;;;;;;;;5034851;28;19913;-84
2022/05/29 04:43:34;;;;;;;;;;;;;;;;;;5038901;28;19909;-95
2022/05/29 04:46:00;;;;;;;;;;;;;;;;;;5031693;28;19936;-89
2022/05/29 04:48:26;;;;;;;;;;;;;;;;;;5037392;28;20436;-91
2022/05/29 04:50:52;;;;;;;;;;;;;;;;;;5039350;28;19919;-86
2022/05/29 04:53:18;;;;;;;;;;;;;;;;;;5039120;28;19920;-85
2022/05/29 04:55:44;;;;;;;;;;;;;;;;;;5031285;28;19908;-93
2022/05/29 04:58:10;;;;;;;;;;;;;;;;;;5035635;28;20306;-92
2022/05/29 05:00:36;;;;;;;;;;;;;;;;;;5046864;28;19913;-87
2022/05/29 05:03:02;;;;;;;;;;;;;;;;;;5038323;28;19935;-87
2022/05/29 05:05:28;;;;;;;;;;;;;;;;;;5036050;28;19952;-87
2022/05/29 05:07:54;;;;;;;;;;;;;;;;;;5035219;28;20344;-87
2022/05/29 05:10:20;;;;;;;;;;;;;;;;;;5036543;28;19913;-91
2022/05/29 05:12:46;;;;;;;;;;;;;;;;;;5032408;28;19912;-89
2022/05/29 05:15:11;;;;;;;;;;;;;;;;;;5034685;28;19920;-92
2022/05/29 05:17:37;;;;;;;;;;;;;;;;;;5038175;28;20400;-93
2022/05/29 05:20:03;;;;;;;;;;;;;;;;;;5039153;28;19959;-90
2022/05/29 05:22:29;;;;;;;;;;;;;;;;;;5039120;28;19920;-93
2022/05/29 05:24:55;;;;;;;;;;;;;;;;;;5043195;28;19920;-81
2022/05/29 05:27:21;;;;;;;;;;;;;;;;;;5044392;28;19909;-82
2022/05/29 05:29:48;;;;;;;;;;;;;;;;;;5042332;28;20015;-79
2022/05/29 05:32:14;;;;;;;;;;;;;;;;;;5042290;28;19912;-80
2022/05/29 05:34:41;;;;;;;;;;;;;;;;;;5042789;28;20309;-83
2022/05/29 05:37:07;;;;;;;;;;;;;;;;;;5043393;28;19986;-86
2022/05/29 05:39:33;;;;;;;;;;;;;;;;;;5042930;28;20701;-84
2022/05/29 05:41:59;;;;;;;;;;;;;;;;;;5044768;28;19913;-83
2022/05/29 05:44:25;;;;;;;;;;;;;;;;;;5042569;28;19964;-82
2022/05/29 05:46:53;;;;;;;;;;;;;;;;;;5048057;28;19916;-81
2022/05/29 05:49:19;;;;;;;;;;;;;;;;;;5042960;28;19913;-81
2022/05/29 05:51:45;;;;;;;;;;;;;;;;;;5046127;28;19913;-83
2022/05/29 05:54:12;;;;;;;;;;;;;;;;;;5042750;28;19952;-83
2022/05/29 05:56:37;;;;;;;;;;;;;;;;;;5043708;28;20484;-83
2022/05/29 05:59:03;;;;;;;;;;;;;;;;;;5042468;28;19955;-82
2022/05/29 06:01:29;;;;;;;;;;;;;;;;;;5042959;28;19942;-81
2022/05/29 06:03:55;;;;;;;;;;;;;;;;;;5042145;28;19916;-82
2022/05/29 06:06:21;;;;;;;;;;;;;;;;;;5042634;28;19923;-78
2022/05/29 06:08:47;;;;;;;;;;;;;;;;;;5043970;28;19916;-78
2022/05/29 06:11:13;;;;;;;;;;;;;;;;;;5042246;28;19917;-78
2022/05/29 06:13:39;;;;;;;;;;;;;;;;;;5042277;28;19912;-82
2022/05/29 06:16:05;;;;;;;;;;;;;;;;;;5038895;28;19913;-82
2022/05/29 06:18:31;;;;;;;;;;;;;;;;;;5044577;28;19913;-85
2022/05/29 06:20:57;;;;;;;;;;;;;;;;;;5041252;28;19917;-83
2022/05/29 06:23:23;;;;;;;;;;;;;;;;;;5066348;28;19952;-82
2022/05/29 06:25:49;;;;;;;;;;;;;;;;;;5036882;28;20011;-89
2022/05/29 06:28:15;;;;;;;;;;;;;;;;;;5054798;28;20417;-88
2022/05/29 06:30:41;;;;;;;;;;;;;;;;;;5039487;28;20012;-92
2022/05/29 06:33:07;;;;;;;;;;;;;;;;;;5034580;28;19916;-87
2022/05/29 06:35:33;;;;;;;;;;;;;;;;;;5047895;28;20334;-87
2022/05/29 06:37:59;;;;;;;;;;;;;;;;;;5033894;28;19917;-88
2022/05/29 06:40:25;;;;;;;;;;;;;;;;;;5036787;28;20003;-86
2022/05/29 06:42:51;;;;;;;;;;;;;;;;;;5025715;28;20382;-87
2022/05/29 06:45:17;;;;;;;;;;;;;;;;;;5031620;28;20000;-82
2022/05/29 06:47:43;;;;;;;;;;;;;;;;;;5028837;28;19919;-83
2022/05/29 06:50:09;;;;;;;;;;;;;;;;;;5027588;28;19990;-83
2022/05/29 06:52:35;;;;;;;;;;;;;;;;;;5032219;28;20404;-84
2022/05/29 06:55:01;;;;;;;;;;;;;;;;;;5030443;28;19913;-83
2022/05/29 06:57:36;;;;;;;;;;;;;;;;;;5031243;28;19924;-85
2022/05/29 07:08:16;;;;;;;;;;;;;;;;;;5029595;28;20036;-83
2022/05/29 07:10:42;;;;;;;;;;;;;;;;;;5028524;28;20389;-83
2022/05/29 07:13:08;;;;;;;;;;;;;;;;;;5031757;28;20410;-82
2022/05/29 07:15:34;;;;;;;;;;;;;;;;;;5030277;28;20003;-83
2022/05/29 07:18:00;;;;;;;;;;;;;;;;;;5029648;28;20329;-83
2022/05/29 07:20:26;;;;;;;;;;;;;;;;;;5034176;28;19936;-84
2022/05/29 07:22:52;;;;;;;;;;;;;;;;;;5030017;28;20048;-85
2022/05/29 07:25:18;;;;;;;;;;;;;;;;;;5030032;28;19999;-83
2022/05/29 07:27:44;;;;;;;;;;;;;;;;;;5035122;28;19917;-81
2022/05/29 07:30:10;;;;;;;;;;;;;;;;;;5033930;28;19920;-84
2022/05/29 07:32:36;;;;;;;;;;;;;;;;;;5033581;28;19917;-82
2022/05/29 07:35:02;;;;;;;;;;;;;;;;;;5034111;28;19913;-84
2022/05/29 07:37:28;;;;;;;;;;;;;;;;;;5032591;28;20304;-80
2022/05/29 07:39:54;;;;;;;;;;;;;;;;;;5035242;28;19913;-77
2022/05/29 07:45:05;;;;;;;;;;;;;;;;;;5030591;28;19927;-81
2022/05/29 07:47:31;;;;;;;;;;;;;;;;;;5027268;28;19939;-81
2022/05/29 07:49:57;;;;;;;;;;;;;;;;;;5025434;28;19913;-85
2022/05/29 07:52:23;;;;;;;;;;;;;;;;;;5034469;28;20428;-81
2022/05/29 07:54:49;;;;;;;;;;;;;;;;;;5035213;28;19921;-79
2022/05/29 07:57:15;;;;;;;;;;;;;;;;;;5029985;28;19920;-79
2022/05/29 07:59:41;;;;;;;;;;;;;;;;;;5032691;28;19913;-78
2022/05/29 08:02:07;;;;;;;;;;;;;;;;;;5034314;28;19920;-79
2022/05/29 08:04:33;;;;;;;;;;;;;;;;;;5030862;28;19951;-79
2022/05/29 08:06:59;;;;;;;;;;;;;;;;;;5030842;28;19913;-79
2022/05/29 08:09:25;;;;;;;;;;;;;;;;;;5034012;28;19917;-78
2022/05/29 08:11:51;;;;;;;;;;;;;;;;;;5038546;28;19913;-78
2022/05/29 08:14:16;;;;;;;;;;;;;;;;;;5028358;28;19920;-78
2022/05/29 08:16:42;;;;;;;;;;;;;;;;;;5038905;28;19923;-77
2022/05/29 08:19:08;;;;;;;;;;;;;;;;;;5036849;28;19943;-78
2022/05/29 08:21:34;;;;;;;;;;;;;;;;;;5030478;28;19991;-78
2022/05/29 08:32:14;;;;;;;;;;;;;;;;;;5032244;28;19921;-78
2022/05/29 08:34:42;;;;;;;;;;;;;;;;;;5032397;28;19917;-78
2022/05/29 08:37:08;;;;;;;;;;;;;;;;;;5034521;28;20311;-78
2022/05/29 08:39:35;;;;;;;;;;;;;;;;;;5036258;28;19912;-78
2022/05/29 08:42:01;;;;;;;;;;;;;;;;;;5045041;28;19916;-78
2022/05/29 08:44:27;;;;;;;;;;;;;;;;;;5029538;28;19932;-77
2022/05/29 08:46:55;;;;;;;;;;;;;;;;;;5035113;28;19912;-78
2022/05/29 08:49:21;;;;;;;;;;;;;;;;;;5034633;28;20283;-78
2022/05/29 08:51:46;;;;;;;;;;;;;;;;;;5029767;28;19913;-78
2022/05/29 08:54:12;;;;;;;;;;;;;;;;;;5029317;28;19916;-78
2022/05/29 08:56:38;;;;;;;;;;;;;;;;;;5030513;28;19913;-78
2022/05/29 08:59:04;;;;;;;;;;;;;;;;;;5036022;28;20367;-77
2022/05/29 09:01:30;;;;;;;;;;;;;;;;;;5037292;28;19919;-78
2022/05/29 09:03:56;;;;;;;;;;;;;;;;;;5034179;28;20405;-79
2022/05/29 09:06:22;;;;;;;;;;;;;;;;;;5030100;28;19934;-76
2022/05/29 09:08:48;;;;;;;;;;;;;;;;;;5030869;28;20687;-78
2022/05/29 09:11:16;;;;;;;;;;;;;;;;;;5035275;28;19913;-77
2022/05/29 09:13:42;;;;;;;;;;;;;;;;;;5033996;28;20446;-81
2022/05/29 09:16:08;;;;;;;;;;;;;;;;;;5030033;28;19917;-77
2022/05/29 09:18:36;;;;;;;;;;;;;;;;;;5035536;28;19948;-77
2022/05/29 09:21:02;;;;;;;;;;;;;;;;;;5037355;28;19913;-77
2022/05/29 09:23:28;;;;;;;;;;;;;;;;;;5032726;28;19919;-77
2022/05/29 09:25:55;;;;;;;;;;;;;;;;;;5029463;28;20059;-77
2022/05/29 09:28:24;;;;;;;;;;;;;;;;;;5033913;28;19921;-76
2022/05/29 09:30:50;;;;;;;;;;;;;;;;;;5032804;28;19917;-77
2022/05/29 09:33:16;;;;;;;;;;;;;;;;;;5046649;28;19924;-77
2022/05/29 09:35:42;;;;;;;;;;;;;;;;;;5027277;28;19913;-77
2022/05/29 09:38:08;;;;;;;;;;;;;;;;;;5036877;28;19920;-77
2022/05/29 09:40:34;;;;;;;;;;;;;;;;;;5026770;28;20038;-77
2022/05/29 09:42:59;;;;;;;;;;;;;;;;;;5027582;28;19959;-77
2022/05/29 09:45:25;;;;;;;;;;;;;;;;;;5032738;28;19921;-77
2022/05/29 09:50:36;;;;;;;;;;;;;;;;;;5031704;28;20653;-78
2022/05/29 09:53:02;;;;;;;;;;;;;;;;;;5031437;28;19999;-79
2022/05/29 09:55:34;;;;;;;;;;;;;;;;;;5030897;28;19928;-83
2022/05/29 09:58:00;;;;;;;;;;;;;;;;;;5022793;28;20646;-80
2022/05/29 10:00:26;;;;;;;;;;;;;;;;;;5034036;28;19928;-84
2022/05/29 10:02:52;;;;;;;;;;;;;;;;;;5026408;28;19916;-84
2022/05/29 10:05:18;;;;;;;;;;;;;;;;;;5026500;28;19956;-82
2022/05/29 10:07:46;;;;;;;;;;;;;;;;;;5034623;28;19948;-83
2022/05/29 10:10:12;;;;;;;;;;;;;;;;;;5061715;28;19962;-82
2022/05/29 10:12:38;;;;;;;;;;;;;;;;;;5027599;28;19917;-84
2022/05/29 10:15:04;;;;;;;;;;;;;;;;;;5027278;28;19943;-82
2022/05/29 10:17:30;;;;;;;;;;;;;;;;;;5029549;28;19917;-82
2022/05/29 10:19:56;;;;;;;;;;;;;;;;;;5035320;28;20371;-82
2022/05/29 10:22:22;;;;;;;;;;;;;;;;;;5034248;28;19912;-81
2022/05/29 10:24:47;;;;;;;;;;;;;;;;;;5035054;28;20046;-80
2022/05/29 10:27:13;;;;;;;;;;;;;;;;;;5033898;28;19920;-80
2022/05/29 10:29:39;;;;;;;;;;;;;;;;;;5036395;28;19924;-82
2022/05/29 10:32:05;;;;;;;;;;;;;;;;;;5027653;28;20345;-82
2022/05/29 10:34:31;;;;;;;;;;;;;;;;;;5032320;28;19912;-88
2022/05/29 10:36:57;;;;;;;;;;;;;;;;;;5026851;28;20219;-88
2022/05/29 10:39:23;;;;;;;;;;;;;;;;;;5032697;28;19913;-86
2022/05/29 10:41:49;;;;;;;;;;;;;;;;;;5057469;28;19920;-86
2022/05/29 10:44:15;;;;;;;;;;;;;;;;;;5063980;28;20361;-86
2022/05/29 10:46:41;;;;;;;;;;;;;;;;;;5033435;28;19912;-85
2022/05/29 10:49:08;;;;;;;;;;;;;;;;;;5034434;28;19940;-90
2022/05/29 10:51:33;;;;;;;;;;;;;;;;;;5031774;28;19920;-85
2022/05/29 10:53:59;;;;;;;;;;;;;;;;;;5038257;28;19913;-86
2022/05/29 10:56:25;;;;;;;;;;;;;;;;;;5038462;28;19912;-86
2022/05/29 10:58:51;;;;;;;;;;;;;;;;;;5036570;28;20369;-86
2022/05/29 11:04:01;;;;;;;;;;;;;;;;;;5030279;28;20041;-86
2022/05/29 11:06:27;;;;;;;;;;;;;;;;;;5030046;28;20416;-86
2022/05/29 11:08:53;;;;;;;;;;;;;;;;;;5028658;28;19924;-87
2022/05/29 11:11:19;;;;;;;;;;;;;;;;;;5034407;28;19916;-86
2022/05/29 11:13:46;;;;;;;;;;;;;;;;;;5029727;28;19917;-85
2022/05/29 11:16:12;;;;;;;;;;;;;;;;;;5025300;28;19917;-87
2022/05/29 11:18:38;;;;;;;;;;;;;;;;;;5026790;28;19927;-87
2022/05/29 11:21:05;;;;;;;;;;;;;;;;;;5027419;28;19932;-86
2022/05/29 11:23:30;;;;;;;;;;;;;;;;;;5027355;28;19913;-89
2022/05/29 11:25:56;;;;;;;;;;;;;;;;;;5029077;28;19921;-89
2022/05/29 11:28:22;;;;;;;;;;;;;;;;;;5028459;28;19928;-88
2022/05/29 11:30:48;;;;;;;;;;;;;;;;;;5026235;28;20016;-89
2022/05/29 11:33:14;;;;;;;;;;;;;;;;;;5028804;28;19995;-89
2022/05/29 11:35:40;;;;;;;;;;;;;;;;;;5025623;28;20374;-87
2022/05/29 11:38:06;;;;;;;;;;;;;;;;;;5021430;28;19963;-88
2022/05/29 11:40:32;;;;;;;;;;;;;;;;;;5026308;28;20434;-87
2022/05/29 11:42:58;;;;;;;;;;;;;;;;;;5023527;28;20412;-84
2022/05/29 11:45:24;;;;;;;;;;;;;;;;;;5030006;28;19921;-87
2022/05/29 11:53:19;;;;;;;;;;;;;;;;;;5025622;28;19962;-84
2022/05/29 11:55:45;;;;;;;;;;;;;;;;;;5026501;28;20342;-87
2022/05/29 11:58:11;;;;;;;;;;;;;;;;;;5044080;28;19913;-86
2022/05/29 12:00:37;;;;;;;;;;;;;;;;;;5028835;28;19917;-86
2022/05/29 12:03:03;;;;;;;;;;;;;;;;;;5027772;28;19972;-85
2022/05/29 12:05:29;;;;;;;;;;;;;;;;;;5033671;28;19966;-87
2022/05/29 12:07:55;;;;;;;;;;;;;;;;;;5028225;28;19920;-84
2022/05/29 12:10:21;;;;;;;;;;;;;;;;;;5028067;28;19936;-88
2022/05/29 12:12:47;;;;;;;;;;;;;;;;;;5029864;28;19912;-89
2022/05/29 12:15:13;;;;;;;;;;;;;;;;;;5031851;28;19917;-90
2022/05/29 12:17:39;;;;;;;;;;;;;;;;;;5035060;28;19924;-85
2022/05/29 12:20:05;;;;;;;;;;;;;;;;;;5034256;28;19920;-84
2022/05/29 12:22:31;;;;;;;;;;;;;;;;;;5034084;28;19970;-87
2022/05/29 12:24:56;;;;;;;;;;;;;;;;;;5032072;28;19928;-88
2022/05/29 12:27:22;;;;;;;;;;;;;;;;;;5029817;28;19939;-85
2022/05/29 12:29:49;;;;;;;;;;;;;;;;;;5031752;28;19955;-84
2022/05/29 12:32:15;;;;;;;;;;;;;;;;;;5031851;28;19955;-84
2022/05/29 12:34:41;;;;;;;;;;;;;;;;;;5029438;28;20040;-86
2022/05/29 12:37:07;;;;;;;;;;;;;;;;;;5027252;28;19919;-85
2022/05/29 12:39:33;;;;;;;;;;;;;;;;;;5026050;28;19917;-86
2022/05/29 12:41:59;;;;;;;;;;;;;;;;;;5037017;28;19974;-85
2022/05/29 12:44:25;;;;;;;;;;;;;;;;;;5038154;28;20210;-85
2022/05/29 12:46:51;;;;;;;;;;;;;;;;;;5037782;28;20461;-85
2022/05/29 12:49:17;;;;;;;;;;;;;;;;;;5033841;28;20530;-85
2022/05/29 12:51:43;;;;;;;;;;;;;;;;;;5028472;28;19980;-86
2022/05/29 12:54:09;;;;;;;;;;;;;;;;;;5027653;28;19975;-85
2022/05/29 12:56:35;;;;;;;;;;;;;;;;;;5027163;28;19913;-85
2022/05/29 12:59:01;;;;;;;;;;;;;;;;;;5025269;28;19912;-85
2022/05/29 13:01:27;;;;;;;;;;;;;;;;;;5033262;28;20455;-85
2022/05/29 13:03:53;;;;;;;;;;;;;;;;;;5029931;28;19909;-86
2022/05/29 13:06:19;;;;;;;;;;;;;;;;;;5026238;28;19913;-86
2022/05/29 13:08:45;;;;;;;;;;;;;;;;;;5030335;28;20352;-85
2022/05/29 13:11:11;;;;;;;;;;;;;;;;;;5025255;28;19909;-86
2022/05/29 13:13:39;;;;;;;;;;;;;;;;;;5025482;28;19982;-85
2022/05/29 13:16:05;;;;;;;;;;;;;;;;;;5025222;28;19913;-84
2022/05/29 13:20:57;;;;;;;;;;;;;;;;;;5025997;28;19913;-85
2022/05/29 13:23:24;;;;;;;;;;;;;;;;;;5024488;28;19935;-85
2022/05/29 13:25:50;;;;;;;;;;;;;;;;;;5043016;28;19917;-85
2022/05/29 13:28:16;;;;;;;;;;;;;;;;;;5026516;28;19928;-84
2022/05/29 13:30:42;;;;;;;;;;;;;;;;;;5028110;28;19913;-85
2022/05/29 13:33:08;;;;;;;;;;;;;;;;;;5029131;28;20374;-85
2022/05/29 13:35:34;;;;;;;;;;;;;;;;;;5026404;28;20378;-85
2022/05/29 13:38:01;;;;;;;;;;;;;;;;;;5023939;28;19913;-84
2022/05/29 13:40:27;;;;;;;;;;;;;;;;;;5026134;28;20027;-85
2022/05/29 13:42:53;;;;;;;;;;;;;;;;;;5026441;28;19991;-86
2022/05/29 13:45:19;;;;;;;;;;;;;;;;;;5026012;28;20500;-84
2022/05/29 13:47:45;;;;;;;;;;;;;;;;;;5028881;28;19913;-85
2022/05/29 13:50:11;;;;;;;;;;;;;;;;;;5026626;28;19916;-85
2022/05/29 13:52:39;;;;;;;;;;;;;;;;;;5030301;28;20293;-84
2022/05/29 13:55:05;;;;;;;;;;;;;;;;;;5029869;28;20789;-84
2022/05/29 14:05:49;;;;;;;;;;;;;;;;;;5029024;28;19974;-85
2022/05/29 14:08:15;;;;;;;;;;;;;;;;;;5026598;28;20090;-85
2022/05/29 14:10:41;;;;;;;;;;;;;;;;;;5028117;28;19909;-85
2022/05/29 14:13:07;;;;;;;;;;;;;;;;;;5029800;28;19920;-86
2022/05/29 14:15:32;;;;;;;;;;;;;;;;;;5030317;28;19913;-85
2022/05/29 14:17:58;;;;;;;;;;;;;;;;;;5029376;28;20297;-85
2022/05/29 14:20:24;;;;;;;;;;;;;;;;;;5027503;28;20037;-86
2022/05/29 14:22:51;;;;;;;;;;;;;;;;;;5028182;28;19996;-84
2022/05/29 14:25:17;;;;;;;;;;;;;;;;;;5030531;28;19925;-85
2022/05/29 14:28:03;;;;;;;;;;;;;;;;;;5030011;28;19919;-86
2022/05/29 14:30:29;;;;;;;;;;;;;;;;;;5029159;28;19960;-85
2022/05/29 14:32:54;;;;;;;;;;;;;;;;;;5029145;28;19913;-84
2022/05/29 14:35:20;;;;;;;;;;;;;;;;;;5026795;28;19920;-84
2022/05/29 14:37:46;;;;;;;;;;;;;;;;;;5028773;28;19979;-85
2022/05/29 14:40:12;;;;;;;;;;;;;;;;;;5032111;28;19912;-85
2022/05/29 14:42:39;;;;;;;;;;;;;;;;;;5029784;28;19919;-86
2022/05/29 14:45:05;;;;;;;;;;;;;;;;;;5028202;28;20402;-85
2022/05/29 14:47:31;;;;;;;;;;;;;;;;;;5026577;28;19939;-85
2022/05/29 14:49:56;;;;;;;;;;;;;;;;;;5027539;28;19909;-86
2022/05/29 14:52:22;;;;;;;;;;;;;;;;;;5028656;28;19920;-83
2022/05/29 14:54:48;;;;;;;;;;;;;;;;;;5028106;28;20393;-85
2022/05/29 14:57:14;;;;;;;;;;;;;;;;;;5032445;28;19913;-86
2022/05/29 14:59:40;;;;;;;;;;;;;;;;;;5026688;28;20377;-85
2022/05/29 15:02:06;;;;;;;;;;;;;;;;;;5025155;28;20305;-85
2022/05/29 15:04:32;;;;;;;;;;;;;;;;;;5031424;28;19919;-86
2022/05/29 15:12:27;;;;;;;;;;;;;;;;;;5028772;28;20533;-85
2022/05/29 15:14:53;;;;;;;;;;;;;;;;;;5026894;28;19920;-85
2022/05/29 15:17:19;;;;;;;;;;;;;;;;;;5025979;28;20050;-85
2022/05/29 15:25:14;;;;;;;;;;;;;;;;;;5026548;28;20730;-85
2022/05/29 15:27:40;;;;;;;;;;;;;;;;;;5027002;28;19952;-85
2022/05/29 15:30:10;;;;;;;;;;;;;;;;;;5027421;28;20015;-85
2022/05/29 15:32:36;;;;;;;;;;;;;;;;;;5025930;28;19912;-86
2022/05/29 15:35:02;;;;;;;;;;;;;;;;;;5030479;28;19909;-86
2022/05/29 15:37:28;;;;;;;;;;;;;;;;;;5036900;28;19923;-85
2022/05/29 15:39:54;;;;;;;;;;;;;;;;;;5030114;28;19913;-85
2022/05/29 15:42:20;;;;;;;;;;;;;;;;;;5032702;28;19920;-84
2022/05/29 15:44:46;;;;;;;;;;;;;;;;;;5030264;28;20314;-85
2022/05/29 15:47:12;;;;;;;;;;;;;;;;;;5041485;28;19919;-85
2022/05/29 15:49:38;;;;;;;;;;;;;;;;;;5036833;28;20006;-85
2022/05/29 15:52:04;;;;;;;;;;;;;;;;;;5033579;28;19912;-85
2022/05/29 15:54:30;;;;;;;;;;;;;;;;;;5036595;28;19928;-85
2022/05/29 15:56:56;;;;;;;;;;;;;;;;;;5038692;28;19912;-84
2022/05/29 15:59:22;;;;;;;;;;;;;;;;;;5038402;28;20527;-86
2022/05/29 16:01:48;;;;;;;;;;;;;;;;;;5032328;28;20007;-83
2022/05/29 16:04:14;;;;;;;;;;;;;;;;;;5026629;28;20075;-84
2022/05/29 16:06:39;;;;;;;;;;;;;;;;;;5028437;28;19917;-86
2022/05/29 16:09:05;;;;;;;;;;;;;;;;;;5026066;28;19913;-84
2022/05/29 16:11:32;;;;;;;;;;;;;;;;;;5025124;28;20421;-84
2022/05/29 16:13:59;;;;;;;;;;;;;;;;;;5027505;28;19913;-85
2022/05/29 16:16:25;;;;;;;;;;;;;;;;;;5027002;28;20398;-89
2022/05/29 16:18:51;;;;;;;;;;;;;;;;;;5060247;28;19967;-87
2022/05/29 16:21:17;;;;;;;;;;;;;;;;;;5026025;28;20003;-86
2022/05/29 16:23:43;;;;;;;;;;;;;;;;;;5024669;28;20780;-86
2022/05/29 16:26:09;;;;;;;;;;;;;;;;;;5026181;28;20805;-85
2022/05/29 16:28:35;;;;;;;;;;;;;;;;;;5026835;28;19916;-86
2022/05/29 16:31:00;;;;;;;;;;;;;;;;;;5027464;28;19916;-85
2022/05/29 16:33:26;;;;;;;;;;;;;;;;;;5026137;28;19920;-85
2022/05/29 16:35:52;;;;;;;;;;;;;;;;;;5024919;28;19919;-86
2022/05/29 16:49:17;;;;;;;;;;;;;;;;;;5033874;28;19966;-86
2022/05/29 16:51:43;;;;;;;;;;;;;;;;;;5036711;28;19913;-87
2022/05/29 16:54:09;;;;;;;;;;;;;;;;;;5028841;28;19912;-87
2022/05/29 16:56:35;;;;;;;;;;;;;;;;;;5032966;28;20381;-87
2022/05/29 16:59:01;;;;;;;;;;;;;;;;;;5027060;28;19913;-85
2022/05/29 17:01:27;;;;;;;;;;;;;;;;;;5026393;28;19912;-86
2022/05/29 17:03:54;;;;;;;;;;;;;;;;;;5026809;28;19944;-87
2022/05/29 17:06:20;;;;;;;;;;;;;;;;;;5028725;28;19916;-86
2022/05/29 17:08:46;;;;;;;;;;;;;;;;;;5024154;28;19913;-86
2022/05/29 17:11:14;;;;;;;;;;;;;;;;;;5024644;28;19913;-85
2022/05/29 17:13:39;;;;;;;;;;;;;;;;;;5024647;28;19913;-87
2022/05/29 17:16:05;;;;;;;;;;;;;;;;;;5025767;28;19912;-86
2022/05/29 17:18:31;;;;;;;;;;;;;;;;;;5024341;28;19913;-83
2022/05/29 17:20:57;;;;;;;;;;;;;;;;;;5029931;28;20587;-83
2022/05/29 17:23:23;;;;;;;;;;;;;;;;;;5028726;28;20013;-84
2022/05/29 17:25:49;;;;;;;;;;;;;;;;;;5027583;28;19927;-84
2022/05/29 17:28:15;;;;;;;;;;;;;;;;;;5048117;28;19921;-84
2022/05/29 17:30:41;;;;;;;;;;;;;;;;;;5027608;28;19956;-84
2022/05/29 17:33:07;;;;;;;;;;;;;;;;;;5025465;28;19912;-85
2022/05/29 17:35:33;;;;;;;;;;;;;;;;;;5026133;28;20681;-87
2022/05/29 17:37:59;;;;;;;;;;;;;;;;;;5024826;28;19948;-86
2022/05/29 17:40:24;;;;;;;;;;;;;;;;;;5030238;28;19913;-82
2022/05/29 17:42:50;;;;;;;;;;;;;;;;;;5029458;28;19928;-82
2022/05/29 17:45:17;;;;;;;;;;;;;;;;;;5039005;28;20297;-82
2022/05/29 17:47:43;;;;;;;;;;;;;;;;;;5029795;28;19967;-82